Time;durP1;ratioP1;P1;durP2;ratioP2;P2;SDS_P1;SDS_P2;PMS_P1;PMS_P2;Temp;Humidity;BMP_temperature;BMP_pressure;BME280_temperature;BME280_humidity;BME280_pressure;Samples;Min_cycle;Max_cycle;Signal;HPM_P1;HPM_P2
2022/01/01 00:00:33;;;;;;;64.85;32.92;;;11.00;99.90;;;;;;5128571;27;36098;-62
2022/01/01 00:03:01;;;;;;;59.50;31.60;;;11.00;99.90;;;;;;5129055;27;37487;-62
2022/01/01 00:05:28;;;;;;;61.60;31.92;;;11.00;99.90;;;;;;5129612;27;38432;-62
2022/01/01 00:07:57;;;;;;;61.22;30.83;;;11.00;99.90;;;;;;5129193;27;38344;-62
2022/01/01 00:10:24;;;;;;;59.85;29.77;;;11.00;99.90;;;;;;5129062;27;36065;-62
2022/01/01 00:12:52;;;;;;;60.00;30.33;;;11.00;99.90;;;;;;5128844;27;38820;-62
2022/01/01 00:15:19;;;;;;;56.05;30.30;;;11.00;99.90;;;;;;5129358;27;37446;-62
2022/01/01 00:17:48;;;;;;;58.30;27.45;;;11.00;99.90;;;;;;5128750;27;38167;-62
2022/01/01 00:20:15;;;;;;;51.65;24.15;;;11.00;99.90;;;;;;5129500;27;37228;-62
2022/01/01 00:22:44;;;;;;;44.05;23.25;;;11.00;99.90;;;;;;5128442;27;40094;-62
2022/01/01 00:25:13;;;;;;;50.78;25.25;;;11.10;99.90;;;;;;5128102;27;37534;-62
2022/01/01 00:27:40;;;;;;;51.38;25.80;;;11.10;99.90;;;;;;5128622;27;36485;-62
2022/01/01 00:30:09;;;;;;;57.30;27.55;;;11.10;99.90;;;;;;5128344;27;38220;-62
2022/01/01 00:32:38;;;;;;;53.03;25.85;;;11.10;99.90;;;;;;5128354;27;37652;-62
2022/01/01 00:35:08;;;;;;;57.38;26.25;;;11.10;99.90;;;;;;5129012;27;36190;-62
2022/01/01 00:37:35;;;;;;;48.13;23.50;;;11.10;99.90;;;;;;5129211;27;37635;-62
2022/01/01 00:40:03;;;;;;;52.03;23.55;;;11.10;99.90;;;;;;5128712;27;37991;-62
2022/01/01 00:42:30;;;;;;;51.25;23.00;;;11.10;99.90;;;;;;5129328;27;36856;-62
2022/01/01 00:44:58;;;;;;;44.58;21.40;;;11.10;99.90;;;;;;5128785;27;37766;-62
2022/01/01 00:47:25;;;;;;;44.33;21.23;;;11.10;99.90;;;;;;5127992;27;39035;-62
2022/01/01 00:49:52;;;;;;;44.85;20.75;;;11.00;99.90;;;;;;5128233;27;37631;-62
2022/01/01 00:52:21;;;;;;;49.75;19.75;;;11.10;99.90;;;;;;5128086;27;36966;-62
2022/01/01 00:54:48;;;;;;;44.10;18.45;;;11.00;99.90;;;;;;5128896;27;37593;-62
2022/01/01 00:57:16;;;;;;;49.33;19.75;;;11.00;99.90;;;;;;5128675;27;37407;-62
2022/01/01 00:59:43;;;;;;;46.55;18.73;;;10.90;99.90;;;;;;5128378;27;37327;-62
2022/01/01 01:02:10;;;;;;;45.20;18.27;;;10.90;99.90;;;;;;5126658;27;37453;-62
2022/01/01 01:04:38;;;;;;;40.42;17.98;;;10.90;99.90;;;;;;5127613;27;40212;-62
2022/01/01 01:07:05;;;;;;;44.47;17.50;;;10.80;99.90;;;;;;5128429;27;37826;-62
2022/01/01 01:09:34;;;;;;;45.63;16.60;;;10.80;99.90;;;;;;5128042;27;36053;-62
2022/01/01 01:12:01;;;;;;;39.42;18.23;;;10.80;99.90;;;;;;5128771;27;35639;-62
2022/01/01 01:14:28;;;;;;;43.40;15.90;;;10.80;99.90;;;;;;5127834;27;37583;-62
2022/01/01 01:16:56;;;;;;;37.25;15.25;;;10.70;99.90;;;;;;5128069;27;37870;-62
2022/01/01 01:19:23;;;;;;;44.63;16.25;;;10.70;99.90;;;;;;5128170;27;37578;-62
2022/01/01 01:21:51;;;;;;;41.70;15.45;;;10.70;99.90;;;;;;5128463;27;37065;-62
2022/01/01 01:24:23;;;;;;;43.83;16.08;;;10.70;99.90;;;;;;5127879;27;38543;-62
2022/01/01 01:26:52;;;;;;;45.20;17.90;;;10.70;99.90;;;;;;5128105;27;38546;-62
2022/01/01 01:29:20;;;;;;;56.80;18.52;;;10.70;99.90;;;;;;5127300;27;37283;-62
2022/01/01 01:31:48;;;;;;;54.50;18.95;;;10.70;99.90;;;;;;5126798;27;36589;-62
2022/01/01 01:34:15;;;;;;;56.13;19.70;;;10.60;99.90;;;;;;5128000;27;37917;-62
2022/01/01 01:36:43;;;;;;;48.08;18.95;;;10.70;99.90;;;;;;5128120;27;36434;-62
2022/01/01 01:39:10;;;;;;;48.88;17.95;;;10.60;99.90;;;;;;5127543;27;37683;-62
2022/01/01 01:41:38;;;;;;;43.03;17.20;;;10.60;99.90;;;;;;5130467;27;37105;-62
2022/01/01 01:44:25;;;;;;;40.80;15.13;;;10.70;99.90;;;;;;5132134;27;36128;-62
2022/01/01 01:46:52;;;;;;;51.83;17.30;;;10.60;99.90;;;;;;5131446;27;38885;-62
2022/01/01 01:49:20;;;;;;;55.17;17.73;;;10.60;99.90;;;;;;5130898;27;36104;-62
2022/01/01 01:51:47;;;;;;;42.17;17.15;;;10.60;99.90;;;;;;5130718;27;38143;-62
2022/01/01 01:54:16;;;;;;;48.33;17.75;;;10.60;99.90;;;;;;5131243;27;37594;-62
2022/01/01 01:56:45;;;;;;;54.00;19.13;;;10.60;99.90;;;;;;5131202;27;37713;-62
2022/01/01 01:59:13;;;;;;;50.70;20.67;;;10.60;99.90;;;;;;5129843;27;37717;-62
2022/01/01 02:01:42;;;;;;;64.30;22.52;;;10.60;99.90;;;;;;5130469;27;36850;-62
2022/01/01 02:04:10;;;;;;;55.85;22.45;;;10.70;99.90;;;;;;5130438;27;37559;-62
2022/01/01 02:06:37;;;;;;;51.72;23.08;;;10.70;99.90;;;;;;5131499;27;38352;-62
2022/01/01 02:09:04;;;;;;;53.40;24.95;;;10.70;99.90;;;;;;5130316;27;35091;-62
2022/01/01 02:11:32;;;;;;;64.68;27.77;;;10.70;99.90;;;;;;5130662;27;36683;-62
2022/01/01 02:14:09;;;;;;;80.60;30.58;;;10.70;99.90;;;;;;5130775;27;37625;-62
2022/01/01 02:17:05;;;;;;;73.35;34.03;;;10.70;99.90;;;;;;5130351;27;37835;-62
2022/01/01 02:19:51;;;;;;;78.45;35.83;;;10.80;99.90;;;;;;5130895;27;38026;-62
2022/01/01 02:22:20;;;;;;;65.60;34.15;;;10.80;99.90;;;;;;5130689;27;35431;-62
2022/01/01 02:24:47;;;;;;;82.20;36.63;;;10.80;99.90;;;;;;5129741;27;38138;-62
2022/01/01 02:27:15;;;;;;;85.40;38.25;;;10.80;99.90;;;;;;5131082;27;40805;-62
2022/01/01 02:29:42;;;;;;;67.05;35.45;;;10.80;99.90;;;;;;5130899;27;37871;-62
2022/01/01 02:32:12;;;;;;;79.32;36.67;;;10.80;99.90;;;;;;5131700;27;36778;-62
2022/01/01 02:34:40;;;;;;;86.32;35.80;;;10.90;99.90;;;;;;5131030;27;37683;-62
2022/01/01 02:37:07;;;;;;;69.88;34.45;;;10.90;99.90;;;;;;5131008;27;37622;-62
2022/01/01 02:39:36;;;;;;;82.13;35.53;;;10.90;99.90;;;;;;5130377;27;38059;-62
2022/01/01 02:42:07;;;;;;;61.70;31.17;;;10.90;99.90;;;;;;5130936;27;37129;-62
2022/01/01 02:44:34;;;;;;;65.85;31.02;;;10.90;99.90;;;;;;5129458;27;38418;-62
2022/01/01 02:47:01;;;;;;;71.22;30.88;;;11.00;99.90;;;;;;5130701;27;38102;-62
2022/01/01 02:49:29;;;;;;;69.25;29.67;;;11.00;99.90;;;;;;5130034;27;36150;-62
2022/01/01 02:51:56;;;;;;;73.75;29.20;;;11.00;99.90;;;;;;5128251;27;37711;-62
2022/01/01 02:54:23;;;;;;;75.40;29.67;;;11.00;99.90;;;;;;5130018;27;37441;-62
2022/01/01 02:56:52;;;;;;;66.15;26.75;;;11.00;99.90;;;;;;5129891;27;37637;-62
2022/01/01 02:59:19;;;;;;;61.40;25.10;;;11.00;99.90;;;;;;5130031;27;36141;-62
2022/01/01 03:01:49;;;;;;;64.53;25.73;;;11.00;99.90;;;;;;5130110;27;37484;-62
2022/01/01 03:04:17;;;;;;;75.15;27.17;;;11.00;99.90;;;;;;5129974;27;37752;-62
2022/01/01 03:06:45;;;;;;;62.03;24.65;;;10.80;99.90;;;;;;5130131;27;39371;-62
2022/01/01 03:09:13;;;;;;;68.95;26.70;;;11.00;99.90;;;;;;5130558;27;39334;-62
2022/01/01 03:11:40;;;;;;;67.68;26.60;;;11.00;99.90;;;;;;5130390;27;36750;-62
2022/01/01 03:14:10;;;;;;;60.50;27.42;;;11.00;99.90;;;;;;5129372;27;37494;-62
2022/01/01 03:16:37;;;;;;;65.70;28.63;;;11.00;99.90;;;;;;5130312;27;38379;-62
2022/01/01 03:19:05;;;;;;;64.97;29.95;;;11.00;99.90;;;;;;5129575;27;36308;-62
2022/01/01 03:21:32;;;;;;;77.13;29.30;;;11.00;99.90;;;;;;5129175;27;36874;-62
2022/01/01 03:23:59;;;;;;;64.40;30.85;;;11.00;99.90;;;;;;5129859;27;39533;-62
2022/01/01 03:26:26;;;;;;;69.25;30.13;;;11.00;99.90;;;;;;5130183;27;36369;-60
2022/01/01 03:28:54;;;;;;;65.05;29.80;;;11.00;99.90;;;;;;5129471;27;37444;-60
2022/01/01 03:31:24;;;;;;;64.47;30.35;;;11.00;99.90;;;;;;5129609;27;36643;-60
2022/01/01 03:33:52;;;;;;;69.53;28.98;;;11.00;99.90;;;;;;5129093;27;37412;-60
2022/01/01 03:36:19;;;;;;;59.20;25.13;;;11.00;99.90;;;;;;5129612;27;38442;-60
2022/01/01 03:38:46;;;;;;;57.35;25.73;;;11.00;99.90;;;;;;5129236;27;37672;-60
2022/01/01 03:41:14;;;;;;;63.80;25.95;;;11.00;99.90;;;;;;5130062;27;37055;-60
2022/01/01 03:43:41;;;;;;;62.25;25.30;;;11.00;99.90;;;;;;5129088;27;37969;-60
2022/01/01 03:46:08;;;;;;;62.67;23.98;;;11.00;99.90;;;;;;5128623;27;36477;-60
2022/01/01 03:48:37;;;;;;;55.20;23.20;;;11.00;99.90;;;;;;5129053;27;37575;-60
2022/01/01 03:51:04;;;;;;;59.33;22.92;;;11.00;99.90;;;;;;5128919;27;37291;-60
2022/01/01 03:53:32;;;;;;;66.82;23.67;;;11.00;99.90;;;;;;5129545;27;38829;-60
2022/01/01 03:55:59;;;;;;;60.70;22.60;;;11.00;99.90;;;;;;5129461;27;36355;-60
2022/01/01 03:58:27;;;;;;;56.33;23.55;;;11.00;99.90;;;;;;5128324;27;38060;-60
2022/01/01 04:00:55;;;;;;;51.35;21.83;;;11.00;99.90;;;;;;5129558;27;20141;-62
2022/01/01 04:03:23;;;;;;;66.05;24.55;;;11.00;99.90;;;;;;5127988;27;38158;-62
2022/01/01 04:05:51;;;;;;;60.38;21.95;;;11.00;99.90;;;;;;5129383;27;36395;-62
2022/01/01 04:08:19;;;;;;;62.08;22.90;;;11.00;99.90;;;;;;5129388;27;36231;-62
2022/01/01 04:10:46;;;;;;;66.97;21.38;;;11.00;99.90;;;;;;5128989;27;37698;-62
2022/01/01 04:13:13;;;;;;;51.10;22.52;;;10.90;99.90;;;;;;5128523;27;39021;-62
2022/01/01 04:15:42;;;;;;;53.97;22.63;;;10.90;99.90;;;;;;5129348;27;37603;-62
2022/01/01 04:18:12;;;;;;;54.40;22.17;;;10.90;99.90;;;;;;5128876;27;35995;-62
2022/01/01 04:20:41;;;;;;;58.95;23.30;;;10.90;99.90;;;;;;5127865;27;36659;-62
2022/01/01 04:23:11;;;;;;;55.35;25.42;;;11.00;99.90;;;;;;5128787;27;37721;-62
2022/01/01 04:25:38;;;;;;;65.22;23.77;;;11.00;99.90;;;;;;5128329;27;36433;-60
2022/01/01 04:28:06;;;;;;;57.13;23.67;;;11.00;99.90;;;;;;5129307;27;38374;-60
2022/01/01 04:30:34;;;;;;;61.28;23.38;;;11.00;99.90;;;;;;5128197;27;37395;-60
2022/01/01 04:33:01;;;;;;;59.80;25.27;;;11.00;99.90;;;;;;5129061;27;37639;-60
2022/01/01 04:35:29;;;;;;;53.83;23.45;;;11.00;99.90;;;;;;5129204;27;36512;-60
2022/01/01 04:37:56;;;;;;;51.65;22.98;;;11.00;99.90;;;;;;5129217;27;38021;-60
2022/01/01 04:40:25;;;;;;;52.03;24.00;;;11.00;99.90;;;;;;5128514;27;37273;-60
2022/01/01 04:42:52;;;;;;;53.50;23.83;;;11.00;99.90;;;;;;5129194;27;38388;-60
2022/01/01 04:50:32;;;;;;;65.63;26.02;;;11.10;99.90;;;;;;5740439;22;20062;-63
2022/01/01 04:53:06;;;;;;;58.38;25.88;;;11.00;99.90;;;;;;5468862;22;37810;-63
2022/01/01 04:55:35;;;;;;;55.42;26.70;;;11.00;99.90;;;;;;5115399;27;38567;-63
